Time;durP1;ratioP1;P1;durP2;ratioP2;P2;SDS_P1;SDS_P2;PMS_P1;PMS_P2;Temp;Humidity;BMP_temperature;BMP_pressure;BME280_temperature;BME280_humidity;BME280_pressure;Samples;Min_cycle;Max_cycle;Signal;HPM_P1;HPM_P2
2023/07/27 00:01:02;;;;;;;;;;;;;;;17.76;45.27;99586.75;4996018;28;1076;-56
2023/07/27 00:03:28;;;;;;;;;;;;;;;17.78;45.16;99567.97;4996414;28;1063;-56
2023/07/27 00:05:53;;;;;;;;;;;;;;;17.69;45.19;99526.69;4996804;28;1036;-56
2023/07/27 00:08:19;;;;;;;;;;;;;;;17.73;45.08;99505.69;4996416;28;1051;-55
2023/07/27 00:10:44;;;;;;;;;;;;;;;17.79;45.20;99531.13;4996688;28;1071;-56
2023/07/27 00:13:10;;;;;;;;;;;;;;;17.79;45.02;99602.63;4996875;28;1973;-57
2023/07/27 00:15:35;;;;;;;;;;;;;;;17.70;45.36;99616.28;4996603;28;1033;-53
2023/07/27 00:18:01;;;;;;;;;;;;;;;17.70;45.15;99599.00;4996725;28;1068;-57
2023/07/27 00:20:26;;;;;;;;;;;;;;;17.74;45.25;99633.78;4999717;28;1068;-57
2023/07/27 00:22:52;;;;;;;;;;;;;;;17.74;45.14;99669.53;5000565;28;1063;-55
2023/07/27 00:25:17;;;;;;;;;;;;;;;17.67;45.29;99676.56;4999812;28;1115;-55
2023/07/27 00:27:43;;;;;;;;;;;;;;;17.63;45.54;99643.41;5000795;28;1160;-55
2023/07/27 00:30:09;;;;;;;;;;;;;;;17.65;45.52;99607.34;5000179;28;1151;-56
2023/07/27 00:32:34;;;;;;;;;;;;;;;17.74;44.94;99587.06;5000168;28;1986;-55
2023/07/27 00:35:00;;;;;;;;;;;;;;;17.67;45.09;99605.91;5000013;28;1102;-56
2023/07/27 00:37:25;;;;;;;;;;;;;;;17.73;44.92;99607.41;4999715;28;1068;-56
2023/07/27 00:39:50;;;;;;;;;;;;;;;17.62;45.10;99604.06;4999771;28;1063;-56
2023/07/27 00:42:16;;;;;;;;;;;;;;;17.65;45.14;99591.66;5000119;28;1067;-56
2023/07/27 00:44:41;;;;;;;;;;;;;;;17.60;45.10;99608.28;4998459;28;1199;-56
2023/07/27 00:47:07;;;;;;;;;;;;;;;17.60;45.38;99619.28;4998784;28;1217;-56
2023/07/27 00:49:32;;;;;;;;;;;;;;;17.63;45.34;99654.41;4999827;28;1128;-55
2023/07/27 00:51:58;;;;;;;;;;;;;;;17.60;45.23;99671.50;4999949;28;1910;-55
2023/07/27 00:54:23;;;;;;;;;;;;;;;17.59;45.11;99681.66;4998465;28;1098;-55
2023/07/27 00:56:49;;;;;;;;;;;;;;;17.67;45.11;99677.41;4998414;28;1036;-57
2023/07/27 00:59:14;;;;;;;;;;;;;;;17.62;44.99;99691.25;4999769;28;1004;-57
2023/07/27 01:01:40;;;;;;;;;;;;;;;17.72;45.03;99691.00;4999341;28;1126;-57
2023/07/27 01:04:05;;;;;;;;;;;;;;;17.59;45.07;99692.66;4999679;28;1131;-57
2023/07/27 01:06:31;;;;;;;;;;;;;;;17.65;45.19;99696.13;4999954;28;1099;-57
2023/07/27 01:08:56;;;;;;;;;;;;;;;17.64;45.11;99688.97;4999287;28;1102;-56
2023/07/27 01:11:27;;;;;;;;;;;;;;;17.56;45.18;99681.47;4999656;28;1195;-56
2023/07/27 01:13:53;;;;;;;;;;;;;;;17.56;45.19;99686.97;4997763;28;1959;-56
2023/07/27 01:16:19;;;;;;;;;;;;;;;17.60;45.20;99683.31;4999484;28;1024;-56
2023/07/27 01:18:48;;;;;;;;;;;;;;;17.60;45.18;99693.50;4997710;28;1091;-55
2023/07/27 01:21:14;;;;;;;;;;;;;;;17.50;45.49;99700.03;4997802;28;1111;-54
2023/07/27 01:24:09;;;;;;;;;;;;;;;17.56;45.21;99695.22;4997777;28;1080;-53
2023/07/27 01:26:44;;;;;;;;;;;;;;;17.57;44.96;99689.44;4989350;28;1340;-55
2023/07/27 01:29:28;;;;;;;;;;;;;;;17.57;45.09;99692.16;4999357;28;1139;-57
2023/07/27 01:31:53;;;;;;;;;;;;;;;17.54;45.08;99705.69;4997843;28;1207;-57
2023/07/27 01:34:32;;;;;;;;;;;;;;;17.56;45.09;99709.78;4999039;28;1971;-57
2023/07/27 01:37:04;;;;;;;;;;;;;;;17.61;45.00;99706.09;4970151;28;1057;-57
2023/07/27 01:39:30;;;;;;;;;;;;;;;17.58;44.88;99713.03;4998990;28;970;-57
2023/07/27 01:41:56;;;;;;;;;;;;;;;17.60;45.16;99712.75;4998888;28;1118;-56
2023/07/27 01:44:22;;;;;;;;;;;;;;;17.56;44.95;99706.22;4997614;28;1045;-58
2023/07/27 01:46:48;;;;;;;;;;;;;;;17.55;45.13;99707.34;4981442;28;1126;-58
2023/07/27 01:49:14;;;;;;;;;;;;;;;17.45;45.10;99713.84;4980888;28;1336;-57
2023/07/27 01:51:40;;;;;;;;;;;;;;;17.48;45.10;99706.94;4998993;28;1072;-58
2023/07/27 01:54:06;;;;;;;;;;;;;;;17.61;44.63;99722.59;4998694;28;1884;-58
2023/07/27 01:56:31;;;;;;;;;;;;;;;17.50;45.04;99723.91;4997334;28;1143;-58
2023/07/27 01:58:57;;;;;;;;;;;;;;;17.54;44.59;99723.00;4997336;28;1509;-58
2023/07/27 02:01:22;;;;;;;;;;;;;;;17.54;44.78;99730.44;4998430;28;1084;-58
2023/07/27 02:03:48;;;;;;;;;;;;;;;17.41;45.05;99734.81;4996830;28;1004;-58
2023/07/27 02:06:13;;;;;;;;;;;;;;;17.52;45.05;99729.94;4997004;28;1068;-58
2023/07/27 02:08:40;;;;;;;;;;;;;;;17.51;45.01;99726.38;4998284;28;1108;-58
2023/07/27 02:11:05;;;;;;;;;;;;;;;17.39;45.02;99721.38;4997234;28;1512;-58
2023/07/27 02:13:31;;;;;;;;;;;;;;;17.38;45.13;99708.75;4996854;28;1963;-58
2023/07/27 02:16:06;;;;;;;;;;;;;;;17.44;45.11;99706.72;4997293;28;1114;-57
2023/07/27 02:18:32;;;;;;;;;;;;;;;17.54;44.62;99714.75;4996780;28;1296;-58
2023/07/27 02:20:58;;;;;;;;;;;;;;;17.45;44.74;99703.66;4980780;28;1132;-57
2023/07/27 02:23:23;;;;;;;;;;;;;;;17.52;44.81;99713.44;4998333;28;1072;-57
2023/07/27 02:25:49;;;;;;;;;;;;;;;17.42;45.14;99720.78;4980446;28;1139;-57
2023/07/27 02:28:14;;;;;;;;;;;;;;;17.51;44.75;99712.63;4996794;28;1336;-57
2023/07/27 02:30:40;;;;;;;;;;;;;;;17.40;45.21;99727.69;4980728;28;1232;-57
2023/07/27 02:33:05;;;;;;;;;;;;;;;17.48;44.80;99715.97;4997743;28;1911;-56
2023/07/27 02:35:31;;;;;;;;;;;;;;;17.40;45.09;99742.25;4980634;28;1235;-56
2023/07/27 02:37:56;;;;;;;;;;;;;;;17.37;45.09;99729.09;4996449;28;1156;-56
2023/07/27 02:40:24;;;;;;;;;;;;;;;17.43;44.96;99744.38;4996556;28;1151;-57
2023/07/27 02:42:50;;;;;;;;;;;;;;;17.44;44.91;99745.19;4996064;28;1183;-56
2023/07/27 02:45:16;;;;;;;;;;;;;;;17.42;44.79;99745.50;4997172;28;1176;-56
2023/07/27 02:47:41;;;;;;;;;;;;;;;17.47;44.90;99743.78;4997720;28;1306;-56
2023/07/27 02:50:07;;;;;;;;;;;;;;;17.39;45.00;99759.84;4996985;28;1164;-57
2023/07/27 02:52:44;;;;;;;;;;;;;;;17.45;44.99;99755.88;4996303;28;1898;-57
2023/07/27 02:55:10;;;;;;;;;;;;;;;17.35;45.20;99758.84;4980006;28;1125;-58
2023/07/27 02:57:36;;;;;;;;;;;;;;;17.36;45.03;99763.22;5002718;28;2123;-55
2023/07/27 03:00:03;;;;;;;;;;;;;;;17.45;44.72;99768.81;4995071;28;1237;-59
2023/07/27 03:02:30;;;;;;;;;;;;;;;17.45;44.67;99785.31;4998286;28;1649;-57
2023/07/27 03:04:58;;;;;;;;;;;;;;;17.41;44.87;99785.09;4995692;28;1330;-57
2023/07/27 03:07:24;;;;;;;;;;;;;;;17.39;45.02;99783.75;4995863;28;1252;-58
2023/07/27 03:09:51;;;;;;;;;;;;;;;17.38;45.07;99771.97;4996281;28;1380;-60
2023/07/27 03:12:17;;;;;;;;;;;;;;;17.37;44.76;99761.28;4997837;28;1963;-60
2023/07/27 03:14:43;;;;;;;;;;;;;;;17.39;44.71;99786.50;4995018;28;2287;-60
2023/07/27 03:17:09;;;;;;;;;;;;;;;17.37;44.87;99821.72;4995129;28;1254;-60
2023/07/27 03:19:34;;;;;;;;;;;;;;;17.41;44.72;99823.56;4994655;28;1312;-60
2023/07/27 03:22:00;;;;;;;;;;;;;;;17.43;44.59;99804.00;4984690;28;1270;-61
2023/07/27 03:24:25;;;;;;;;;;;;;;;17.29;45.13;99779.25;4996236;28;1353;-60
2023/07/27 03:26:51;;;;;;;;;;;;;;;17.31;45.08;99763.31;4996198;28;1329;-60
2023/07/27 03:29:17;;;;;;;;;;;;;;;17.31;44.80;99760.56;4994756;28;1269;-60
2023/07/27 03:31:42;;;;;;;;;;;;;;;17.36;44.87;99765.97;4996415;28;1317;-60
2023/07/27 03:34:08;;;;;;;;;;;;;;;17.34;45.03;99757.19;4996306;28;1914;-57
2023/07/27 03:36:33;;;;;;;;;;;;;;;17.32;45.14;99764.94;4996473;28;1037;-58
2023/07/27 03:38:59;;;;;;;;;;;;;;;17.32;44.82;99755.88;4996487;28;870;-60
2023/07/27 03:41:24;;;;;;;;;;;;;;;17.22;45.33;99759.63;4997048;28;997;-60
2023/07/27 03:43:50;;;;;;;;;;;;;;;17.29;44.93;99768.28;4996966;28;1116;-60
2023/07/27 03:46:15;;;;;;;;;;;;;;;17.31;45.04;99768.78;4996292;28;2465;-62
2023/07/27 03:48:41;;;;;;;;;;;;;;;17.25;44.92;99776.31;4996607;28;1017;-62
2023/07/27 03:51:07;;;;;;;;;;;;;;;17.26;45.08;99771.63;4994798;28;1359;-59
2023/07/27 03:53:33;;;;;;;;;;;;;;;17.29;44.77;99773.75;4994761;28;1971;-61
2023/07/27 03:56:01;;;;;;;;;;;;;;;17.29;44.88;99760.03;5000299;28;996;-60
2023/07/27 03:58:27;;;;;;;;;;;;;;;17.30;44.87;99760.88;4998610;28;1143;-59
2023/07/27 04:00:52;;;;;;;;;;;;;;;17.39;44.61;99776.34;4998098;28;1239;-60
2023/07/27 04:03:18;;;;;;;;;;;;;;;17.32;45.01;99775.94;5014034;28;1174;-63
2023/07/27 04:05:43;;;;;;;;;;;;;;;17.27;44.85;99756.78;4999788;28;1048;-60
2023/07/27 04:08:10;;;;;;;;;;;;;;;17.33;44.59;99761.06;5000087;28;1042;-62
2023/07/27 04:10:35;;;;;;;;;;;;;;;17.26;44.89;99777.13;4998934;28;1248;-62
2023/07/27 04:13:01;;;;;;;;;;;;;;;17.31;44.64;99800.97;4982436;28;1910;-62
2023/07/27 04:15:26;;;;;;;;;;;;;;;17.27;44.75;99784.25;4999469;28;1843;-59
2023/07/27 04:17:52;;;;;;;;;;;;;;;17.24;44.71;99774.69;5000193;28;1199;-60
2023/07/27 04:20:17;;;;;;;;;;;;;;;17.24;44.73;99776.63;5000077;28;1044;-59
2023/07/27 04:22:43;;;;;;;;;;;;;;;17.20;44.92;99783.84;4999060;28;1137;-61
2023/07/27 04:25:09;;;;;;;;;;;;;;;17.21;44.98;99793.72;5000103;28;1105;-61
2023/07/27 04:27:34;;;;;;;;;;;;;;;17.20;44.86;99795.63;4999817;28;1039;-62
2023/07/27 04:30:00;;;;;;;;;;;;;;;17.20;44.90;99798.38;4999496;28;1005;-62
2023/07/27 04:32:25;;;;;;;;;;;;;;;17.27;44.92;99812.53;4999691;28;1975;-61
2023/07/27 04:34:51;;;;;;;;;;;;;;;17.24;44.82;99818.63;4999793;28;1045;-60
2023/07/27 04:37:17;;;;;;;;;;;;;;;17.18;44.98;99821.78;4999915;28;1116;-59
2023/07/27 04:39:42;;;;;;;;;;;;;;;17.22;44.88;99814.56;4999423;28;1115;-62
2023/07/27 04:42:08;;;;;;;;;;;;;;;17.21;44.95;99810.22;4999535;28;1032;-61
2023/07/27 04:44:33;;;;;;;;;;;;;;;17.24;45.21;99831.56;4999021;28;1846;-64
2023/07/27 04:46:59;;;;;;;;;;;;;;;17.24;44.84;99828.81;4998145;28;1123;-62
2023/07/27 04:49:24;;;;;;;;;;;;;;;17.97;44.65;99844.84;4999630;28;1120;-60
2023/07/27 04:51:50;;;;;;;;;;;;;;;18.38;44.42;99839.28;4998045;28;1196;-61
2023/07/27 04:54:15;;;;;;;;;;;;;;;18.10;45.39;99820.09;4998111;28;1906;-61
2023/07/27 04:56:41;;;;;;;;;;;;;;;17.99;46.30;99821.38;4999527;28;1096;-60
2023/07/27 04:59:06;;;;;;;;;;;;;;;17.96;46.81;99827.50;4999105;28;1060;-61
2023/07/27 05:01:32;;;;;;;;;;;;;;;17.88;47.38;99830.94;4999497;28;1190;-60
2023/07/27 05:03:57;;;;;;;;;;;;;;;17.77;48.07;99828.41;4998697;28;892;-60
2023/07/27 05:06:23;;;;;;;;;;;;;;;17.74;48.43;99823.50;4998587;28;1059;-60
2023/07/27 05:08:49;;;;;;;;;;;;;;;17.70;48.63;99819.75;4999164;28;1314;-59
2023/07/27 05:11:14;;;;;;;;;;;;;;;17.69;48.89;99811.81;4999086;28;1036;-58
2023/07/27 05:13:40;;;;;;;;;;;;;;;17.62;49.64;99818.50;4999185;28;1902;-59
2023/07/27 05:16:05;;;;;;;;;;;;;;;17.57;49.60;99821.38;4998699;28;2614;-60
2023/07/27 05:18:31;;;;;;;;;;;;;;;17.55;49.97;99829.09;4999264;28;1195;-60
2023/07/27 05:20:56;;;;;;;;;;;;;;;17.53;50.38;99853.31;4998487;28;1111;-60
2023/07/27 05:23:22;;;;;;;;;;;;;;;17.52;50.33;99864.63;4998945;28;1101;-58
2023/07/27 05:25:47;;;;;;;;;;;;;;;17.54;50.54;99873.38;4999071;28;1012;-58
2023/07/27 05:28:13;;;;;;;;;;;;;;;17.44;51.04;99871.63;4998435;28;1036;-59
2023/07/27 05:30:38;;;;;;;;;;;;;;;17.51;51.11;99850.03;4998889;28;1032;-58
2023/07/27 05:33:04;;;;;;;;;;;;;;;17.45;51.28;99830.09;4998464;28;2249;-59
2023/07/27 05:35:29;;;;;;;;;;;;;;;17.40;51.45;99829.38;4998430;28;1088;-59
2023/07/27 05:37:55;;;;;;;;;;;;;;;17.35;51.57;99823.94;4998604;28;929;-59
2023/07/27 05:40:20;;;;;;;;;;;;;;;17.39;51.94;99850.53;4997970;28;862;-59
2023/07/27 05:42:46;;;;;;;;;;;;;;;17.34;51.96;99910.28;4998358;28;1104;-60
2023/07/27 05:45:11;;;;;;;;;;;;;;;17.37;51.96;99959.13;4997762;28;2658;-60
2023/07/27 05:47:37;;;;;;;;;;;;;;;17.34;52.26;99999.00;4998759;28;1012;-61
2023/07/27 05:50:02;;;;;;;;;;;;;;;17.29;52.40;100037.53;4998092;28;1052;-61
2023/07/27 05:52:28;;;;;;;;;;;;;;;17.27;52.38;99998.56;4997900;28;1906;-60
2023/07/27 05:54:53;;;;;;;;;;;;;;;17.23;52.76;99920.59;4998012;28;1008;-61
2023/07/27 05:57:19;;;;;;;;;;;;;;;17.21;52.54;99882.44;4998336;28;1128;-62
2023/07/27 05:59:44;;;;;;;;;;;;;;;17.21;52.70;99920.09;4998173;28;1110;-59
2023/07/27 06:02:10;;;;;;;;;;;;;;;17.22;52.86;99976.66;4998194;28;1080;-60
2023/07/27 06:04:35;;;;;;;;;;;;;;;17.20;52.75;99995.38;4997602;28;965;-61
2023/07/27 06:07:01;;;;;;;;;;;;;;;17.17;53.03;100021.50;4998139;28;1035;-61
2023/07/27 06:09:26;;;;;;;;;;;;;;;17.15;53.00;99979.75;4997733;28;1150;-61
2023/07/27 06:11:52;;;;;;;;;;;;;;;17.08;53.04;99933.47;4997820;28;1064;-60
2023/07/27 06:14:18;;;;;;;;;;;;;;;17.06;53.20;99960.41;4998041;28;2006;-60
2023/07/27 06:16:43;;;;;;;;;;;;;;;17.07;53.20;99959.28;4996803;28;1047;-60
2023/07/27 06:19:09;;;;;;;;;;;;;;;17.03;53.11;99950.00;4998013;28;1290;-62
2023/07/27 06:21:34;;;;;;;;;;;;;;;17.02;53.17;99947.56;4997843;28;1024;-62
2023/07/27 06:24:00;;;;;;;;;;;;;;;17.09;52.83;99948.81;4997757;28;1012;-61
2023/07/27 06:26:25;;;;;;;;;;;;;;;17.04;53.16;99961.81;4996592;28;1106;-61
2023/07/27 06:28:51;;;;;;;;;;;;;;;16.96;53.13;99954.22;4997525;28;888;-61
2023/07/27 06:31:16;;;;;;;;;;;;;;;16.96;53.39;99949.56;4997667;28;1120;-61
2023/07/27 06:33:42;;;;;;;;;;;;;;;16.90;53.24;99957.06;4997682;28;1899;-59
2023/07/27 06:36:08;;;;;;;;;;;;;;;16.93;53.34;99980.38;4997347;28;1085;-60
2023/07/27 06:38:33;;;;;;;;;;;;;;;16.90;53.42;99986.44;4995108;28;1373;-59
2023/07/27 06:40:58;;;;;;;;;;;;;;;16.89;53.22;99991.13;4991274;28;1401;-60
2023/07/27 06:43:24;;;;;;;;;;;;;;;16.94;53.11;100023.19;4997147;28;1116;-61
2023/07/27 06:45:49;;;;;;;;;;;;;;;16.84;53.20;100001.31;4996909;28;1810;-60
2023/07/27 06:48:15;;;;;;;;;;;;;;;16.87;53.32;99960.38;4994411;28;1284;-59
2023/07/27 06:50:41;;;;;;;;;;;;;;;16.85;53.40;99921.38;4996479;28;1234;-61
2023/07/27 06:53:06;;;;;;;;;;;;;;;16.82;53.62;99923.94;4996167;28;1906;-63
2023/07/27 06:55:32;;;;;;;;;;;;;;;16.82;53.49;99921.19;4997074;28;1148;-62
2023/07/27 06:57:58;;;;;;;;;;;;;;;16.82;53.52;99907.47;4996671;28;1174;-61
2023/07/27 07:00:23;;;;;;;;;;;;;;;16.79;53.33;99921.75;4997605;28;1270;-63
2023/07/27 07:02:49;;;;;;;;;;;;;;;16.81;53.49;99930.53;4993595;28;1231;-62
2023/07/27 07:05:14;;;;;;;;;;;;;;;16.83;53.41;99934.63;4990563;28;850;-62
2023/07/27 07:07:40;;;;;;;;;;;;;;;16.76;53.40;99948.69;4996906;28;1000;-62
2023/07/27 07:10:06;;;;;;;;;;;;;;;16.77;53.58;99966.81;4996043;28;1216;-61
2023/07/27 07:12:32;;;;;;;;;;;;;;;16.73;53.44;99990.47;4996430;28;1898;-63
2023/07/27 07:14:57;;;;;;;;;;;;;;;16.71;53.72;100003.66;4996867;28;2471;-59
2023/07/27 07:17:23;;;;;;;;;;;;;;;16.71;53.66;99981.69;4996479;28;868;-60
2023/07/27 07:19:49;;;;;;;;;;;;;;;16.66;53.53;99962.56;4996402;28;1051;-59
2023/07/27 07:22:14;;;;;;;;;;;;;;;16.72;53.51;99966.06;4996877;28;1146;-59
2023/07/27 07:24:40;;;;;;;;;;;;;;;16.76;53.26;99965.19;4996698;28;1215;-58
2023/07/27 07:27:05;;;;;;;;;;;;;;;16.69;53.45;99939.19;4996797;28;1136;-59
2023/07/27 07:29:31;;;;;;;;;;;;;;;16.68;53.51;99965.81;4996309;28;1112;-59
2023/07/27 07:31:56;;;;;;;;;;;;;;;16.72;53.35;99983.34;4996412;28;1230;-59
2023/07/27 07:34:22;;;;;;;;;;;;;;;16.65;53.56;100021.31;4996461;28;1984;-60
2023/07/27 07:36:47;;;;;;;;;;;;;;;16.69;53.52;100101.13;4995208;28;1295;-62
2023/07/27 07:39:13;;;;;;;;;;;;;;;16.70;53.68;100072.59;4996044;28;1015;-62
2023/07/27 07:41:38;;;;;;;;;;;;;;;16.64;53.66;99984.00;4996282;28;1015;-61
2023/07/27 07:44:04;;;;;;;;;;;;;;;16.62;53.52;99961.53;4998411;28;2203;-60
2023/07/27 07:46:29;;;;;;;;;;;;;;;16.60;53.62;99959.03;4996593;28;1217;-61
2023/07/27 07:48:57;;;;;;;;;;;;;;;16.59;53.58;99943.72;4994402;28;1375;-60
2023/07/27 07:51:22;;;;;;;;;;;;;;;16.52;53.82;99956.13;4996569;28;1107;-62
2023/07/27 07:53:47;;;;;;;;;;;;;;;16.55;53.93;99972.00;4996213;28;1898;-60
2023/07/27 07:56:13;;;;;;;;;;;;;;;16.54;53.63;99965.72;4996213;28;1128;-62
2023/07/27 07:58:39;;;;;;;;;;;;;;;16.57;53.60;99980.78;4996384;28;1135;-62
2023/07/27 08:01:04;;;;;;;;;;;;;;;16.53;53.71;99974.25;4996186;28;1085;-64
2023/07/27 08:03:30;;;;;;;;;;;;;;;16.49;53.75;99973.19;4996360;28;1454;-64
2023/07/27 08:05:55;;;;;;;;;;;;;;;16.56;53.56;99958.03;4996084;28;829;-63
2023/07/27 08:08:21;;;;;;;;;;;;;;;16.52;53.58;99962.47;4995849;28;1285;-64
2023/07/27 08:10:47;;;;;;;;;;;;;;;16.50;53.61;99970.16;4995910;28;1376;-62
2023/07/27 08:13:12;;;;;;;;;;;;;;;16.51;53.52;99987.44;4997447;28;1910;-63
2023/07/27 08:15:38;;;;;;;;;;;;;;;16.53;53.52;99991.53;5009039;28;2668;-63
2023/07/27 08:18:03;;;;;;;;;;;;;;;16.52;53.41;99984.41;4995795;28;1403;-64
2023/07/27 08:20:29;;;;;;;;;;;;;;;16.51;53.72;99979.19;4995897;28;1359;-64
2023/07/27 08:22:54;;;;;;;;;;;;;;;16.48;53.63;100010.81;4995424;28;1517;-63
2023/07/27 08:25:21;;;;;;;;;;;;;;;16.48;53.60;100053.88;4995619;28;1347;-63
2023/07/27 08:27:50;;;;;;;;;;;;;;;16.45;53.59;100033.31;4995937;28;1396;-64
2023/07/27 08:30:15;;;;;;;;;;;;;;;16.45;53.77;99994.09;4995822;28;1204;-63
2023/07/27 08:32:41;;;;;;;;;;;;;;;16.42;53.79;99974.38;4996068;28;1911;-63
2023/07/27 08:35:07;;;;;;;;;;;;;;;16.42;53.65;99974.38;4995927;28;1430;-62
2023/07/27 08:37:32;;;;;;;;;;;;;;;16.43;53.74;100025.38;4996066;28;1010;-60
2023/07/27 08:39:58;;;;;;;;;;;;;;;16.40;53.76;100030.66;5003707;28;1252;-60
2023/07/27 08:42:23;;;;;;;;;;;;;;;16.37;53.97;100003.81;5002429;28;1178;-62
2023/07/27 08:44:49;;;;;;;;;;;;;;;16.37;53.78;99977.16;4999594;28;2626;-61
2023/07/27 08:47:14;;;;;;;;;;;;;;;16.33;54.15;99978.84;4999372;28;1518;-61
2023/07/27 08:49:40;;;;;;;;;;;;;;;16.39;53.72;99980.44;5012322;28;1171;-61
2023/07/27 08:52:06;;;;;;;;;;;;;;;16.38;53.76;99987.03;4999493;28;1083;-62
2023/07/27 08:54:31;;;;;;;;;;;;;;;16.38;53.92;99984.31;4997877;28;1910;-61
2023/07/27 08:56:57;;;;;;;;;;;;;;;16.38;53.69;99984.31;4999489;28;1043;-61
2023/07/27 08:59:24;;;;;;;;;;;;;;;16.34;53.99;99974.19;4998931;28;1043;-61
2023/07/27 09:01:50;;;;;;;;;;;;;;;16.32;53.92;99968.97;4999099;28;1046;-61
2023/07/27 09:04:15;;;;;;;;;;;;;;;16.33;53.72;99940.44;4998895;28;985;-61
2023/07/27 09:06:44;;;;;;;;;;;;;;;16.34;53.64;99914.66;4998524;28;900;-61
2023/07/27 09:09:13;;;;;;;;;;;;;;;16.33;53.71;99936.91;4999323;28;1194;-61
2023/07/27 09:11:39;;;;;;;;;;;;;;;16.28;53.99;99967.13;4999160;28;1044;-61
2023/07/27 09:14:04;;;;;;;;;;;;;;;16.35;53.99;100003.25;4998922;28;1988;-62
2023/07/27 09:16:33;;;;;;;;;;;;;;;16.33;53.57;99989.84;4998889;28;1048;-61
2023/07/27 09:18:59;;;;;;;;;;;;;;;16.26;53.98;99967.41;4998812;28;1203;-60
2023/07/27 09:21:24;;;;;;;;;;;;;;;16.24;53.79;99999.78;4998615;28;1103;-60
2023/07/27 09:23:49;;;;;;;;;;;;;;;16.22;53.82;100048.66;4998908;28;1216;-59
2023/07/27 09:26:23;;;;;;;;;;;;;;;16.25;53.77;100054.38;4998799;28;1020;-59
2023/07/27 09:28:48;;;;;;;;;;;;;;;16.19;54.07;100036.34;5007251;28;1072;-60
2023/07/27 09:31:14;;;;;;;;;;;;;;;16.21;54.00;100030.56;5010729;28;1203;-60
2023/07/27 09:33:39;;;;;;;;;;;;;;;16.23;53.74;100047.56;4996506;28;1965;-59
2023/07/27 09:36:07;;;;;;;;;;;;;;;16.24;53.87;100098.56;4997783;28;1213;-59
2023/07/27 09:38:32;;;;;;;;;;;;;;;16.21;54.00;100154.81;4998036;28;1077;-61
2023/07/27 09:40:58;;;;;;;;;;;;;;;16.22;53.72;100156.44;4998052;28;1273;-61
2023/07/27 09:43:24;;;;;;;;;;;;;;;16.22;54.01;100129.00;4997325;28;1206;-60
2023/07/27 09:45:54;;;;;;;;;;;;;;;16.19;53.79;100068.44;5005609;28;2539;-60
2023/07/27 09:48:20;;;;;;;;;;;;;;;16.20;53.78;100075.53;5016080;28;1138;-61
2023/07/27 09:50:45;;;;;;;;;;;;;;;16.23;53.67;100075.00;4996985;28;1174;-60
2023/07/27 09:53:11;;;;;;;;;;;;;;;16.18;54.01;100072.28;5012129;28;1977;-60
2023/07/27 09:55:37;;;;;;;;;;;;;;;16.15;53.77;100072.88;4983865;28;1037;-61
2023/07/27 09:58:02;;;;;;;;;;;;;;;16.14;53.77;100087.69;4998678;28;996;-60
2023/07/27 10:00:29;;;;;;;;;;;;;;;16.10;54.04;100117.59;4996264;28;1152;-59
2023/07/27 10:02:55;;;;;;;;;;;;;;;16.17;53.63;100137.31;4998109;28;1048;-61
2023/07/27 10:05:22;;;;;;;;;;;;;;;16.14;53.74;100115.91;4997785;28;1049;-63
2023/07/27 10:07:47;;;;;;;;;;;;;;;16.13;53.75;100097.00;4997703;28;1222;-58
2023/07/27 10:10:31;;;;;;;;;;;;;;;16.10;53.87;100076.44;4996802;28;1132;-60
2023/07/27 10:12:57;;;;;;;;;;;;;;;16.12;53.87;100059.69;4998010;28;1985;-60
2023/07/27 10:15:27;;;;;;;;;;;;;;;16.13;53.94;100091.53;4997848;28;2383;-59
2023/07/27 10:17:54;;;;;;;;;;;;;;;16.08;53.83;100095.13;4996818;28;1048;-59
2023/07/27 10:20:25;;;;;;;;;;;;;;;16.06;54.06;100070.75;4997693;28;1098;-58
2023/07/27 10:22:52;;;;;;;;;;;;;;;16.14;53.51;100033.63;4997529;28;1112;-58
2023/07/27 10:25:17;;;;;;;;;;;;;;;16.09;53.58;100025.47;4997626;28;1076;-60
2023/07/27 10:27:55;;;;;;;;;;;;;;;16.06;53.99;100013.16;4997202;28;1043;-62
2023/07/27 10:30:21;;;;;;;;;;;;;;;16.10;53.48;100001.59;4997134;28;892;-60
2023/07/27 10:33:15;;;;;;;;;;;;;;;16.05;53.99;99981.34;4996154;28;1910;-60
2023/07/27 10:36:10;;;;;;;;;;;;;;;16.04;53.92;99943.25;4995505;28;1767;-60
2023/07/27 10:38:36;;;;;;;;;;;;;;;16.00;53.78;99945.72;4979512;28;1218;-60
2023/07/27 10:41:13;;;;;;;;;;;;;;;16.04;53.85;99965.97;4997353;28;1435;-61
2023/07/27 10:43:59;;;;;;;;;;;;;;;16.04;53.72;99978.88;4996881;28;829;-60
2023/07/27 10:46:25;;;;;;;;;;;;;;;16.48;54.54;99961.41;4993364;28;1625;-61
2023/07/27 10:48:56;;;;;;;;;;;;;;;17.64;54.40;99939.16;4997222;28;1172;-60
2023/07/27 10:51:21;;;;;;;;;;;;;;;17.13;55.25;99948.25;4997185;28;1112;-59
2023/07/27 10:53:47;;;;;;;;;;;;;;;16.74;55.49;99953.66;4996852;28;1985;-60
2023/07/27 10:56:13;;;;;;;;;;;;;;;16.69;55.14;99952.91;4997296;28;1147;-60
2023/07/27 10:58:38;;;;;;;;;;;;;;;16.59;54.83;99962.09;4996224;28;1048;-61
2023/07/27 11:01:04;;;;;;;;;;;;;;;16.51;54.73;99965.47;4996563;28;1195;-58
2023/07/27 11:03:29;;;;;;;;;;;;;;;16.51;54.54;100009.38;4996382;28;1028;-59
2023/07/27 11:06:04;;;;;;;;;;;;;;;16.42;54.54;100055.84;4995411;28;1024;-59
2023/07/27 11:08:30;;;;;;;;;;;;;;;16.42;54.30;100078.66;4996782;28;1205;-60
2023/07/27 11:10:55;;;;;;;;;;;;;;;16.36;54.61;100085.28;4996788;28;1026;-61
2023/07/27 11:13:25;;;;;;;;;;;;;;;16.30;54.31;100102.91;4995337;28;1914;-60
2023/07/27 11:15:54;;;;;;;;;;;;;;;16.33;54.36;100113.28;5011479;28;1785;-61
2023/07/27 11:18:21;;;;;;;;;;;;;;;16.35;54.28;100116.56;4996940;28;1172;-61
2023/07/27 11:20:46;;;;;;;;;;;;;;;16.33;54.07;100124.28;4996085;28;1118;-60
2023/07/27 11:23:12;;;;;;;;;;;;;;;16.28;54.21;100102.34;4997130;28;1269;-61
2023/07/27 11:25:37;;;;;;;;;;;;;;;16.22;54.11;100076.09;4995692;28;1052;-61
2023/07/27 11:28:03;;;;;;;;;;;;;;;16.19;54.23;99989.69;4995072;28;1071;-60
2023/07/27 11:30:29;;;;;;;;;;;;;;;16.23;54.11;99919.44;4995251;28;1124;-60
2023/07/27 11:32:57;;;;;;;;;;;;;;;16.24;54.01;99884.59;4997035;28;1908;-60
2023/07/27 11:35:23;;;;;;;;;;;;;;;16.17;54.12;99848.47;4996360;28;1116;-60
2023/07/27 11:37:48;;;;;;;;;;;;;;;16.15;54.23;99856.19;4995824;28;1104;-61
2023/07/27 11:40:18;;;;;;;;;;;;;;;16.15;54.20;99859.75;4996455;28;1410;-60
2023/07/27 11:42:44;;;;;;;;;;;;;;;16.19;54.23;99964.22;4996095;28;1324;-62
2023/07/27 11:45:10;;;;;;;;;;;;;;;16.84;55.08;100083.69;4995937;28;2367;-61
2023/07/27 11:47:36;;;;;;;;;;;;;;;17.13;55.95;100091.09;5011675;28;1320;-60
2023/07/27 11:50:02;;;;;;;;;;;;;;;16.72;55.99;100108.81;5009598;28;1772;-60
2023/07/27 11:52:27;;;;;;;;;;;;;;;16.63;55.64;100113.28;5012023;28;1914;-60
2023/07/27 11:54:54;;;;;;;;;;;;;;;16.54;55.42;100110.38;5004105;28;1376;-59
2023/07/27 11:57:19;;;;;;;;;;;;;;;16.52;55.45;100132.63;4996240;28;1356;-60
2023/07/27 12:00:10;;;;;;;;;;;;;;;16.48;55.01;100127.97;5011297;28;1375;-62
2023/07/27 12:02:41;;;;;;;;;;;;;;;16.37;55.14;100114.34;5003169;28;1336;-60
2023/07/27 12:05:07;;;;;;;;;;;;;;;16.42;54.91;100119.81;5014086;28;1372;-60
2023/07/27 12:07:34;;;;;;;;;;;;;;;16.34;54.76;100114.94;5003181;28;1308;-59
2023/07/27 12:09:59;;;;;;;;;;;;;;;16.29;54.77;100093.03;5008593;28;1460;-61
2023/07/27 12:12:25;;;;;;;;;;;;;;;16.30;54.81;100088.34;5011948;28;1917;-60
2023/07/27 12:14:54;;;;;;;;;;;;;;;16.30;54.47;100085.59;4996758;28;2291;-60
2023/07/27 12:17:22;;;;;;;;;;;;;;;16.27;54.57;100072.47;5000161;28;1453;-60
2023/07/27 12:19:48;;;;;;;;;;;;;;;16.20;54.48;100070.91;5000006;28;1174;-60
2023/07/27 12:22:13;;;;;;;;;;;;;;;16.19;54.61;100060.22;5015314;28;1415;-59
2023/07/27 12:24:43;;;;;;;;;;;;;;;16.24;54.13;100049.16;5010060;28;1179;-60
2023/07/27 12:27:08;;;;;;;;;;;;;;;16.19;54.53;100046.50;4999870;28;1044;-61
2023/07/27 12:29:34;;;;;;;;;;;;;;;16.21;54.31;100039.59;4999666;28;1011;-60
2023/07/27 12:31:59;;;;;;;;;;;;;;;16.12;54.51;100030.38;4999312;28;1044;-60
2023/07/27 12:34:25;;;;;;;;;;;;;;;16.13;54.54;100036.66;4999641;28;1906;-59
2023/07/27 12:36:50;;;;;;;;;;;;;;;16.12;54.16;100018.56;4999763;28;1059;-60
2023/07/27 12:39:16;;;;;;;;;;;;;;;16.19;53.93;100019.06;4999721;28;1163;-58
2023/07/27 12:41:42;;;;;;;;;;;;;;;16.04;54.38;100011.78;4999775;28;999;-60
2023/07/27 12:44:07;;;;;;;;;;;;;;;16.15;54.07;100024.31;4998564;28;2333;-60
2023/07/27 12:46:33;;;;;;;;;;;;;;;16.09;54.28;100025.47;4999097;28;1008;-60
2023/07/27 12:48:58;;;;;;;;;;;;;;;16.03;54.16;100021.97;4999478;28;1171;-60
2023/07/27 12:51:24;;;;;;;;;;;;;;;16.01;54.26;100021.41;4999309;28;1098;-60